Time;durP1;ratioP1;P1;durP2;ratioP2;P2;SDS_P1;SDS_P2;PMS_P1;PMS_P2;Temp;Humidity;BMP_temperature;BMP_pressure;BME280_temperature;BME280_humidity;BME280_pressure;Samples;Min_cycle;Max_cycle;Signal;HPM_P1;HPM_P2
2022/01/28 00:01:03;;;;;;;7.40;5.10;;;;;;;3.28;79.00;99161.06;105892;1282;24283;-84
2022/01/28 00:03:33;;;;;;;10.10;4.90;;;;;;;3.26;79.03;99139.14;105855;1282;22560;-85
2022/01/28 00:06:03;;;;;;;7.60;4.70;;;;;;;3.26;78.94;99142.95;106188;1279;22741;-81
2022/01/28 00:08:31;;;;;;;9.90;5.60;;;;;;;3.28;78.85;99146.45;107722;1279;22644;-86
2022/01/28 00:10:59;;;;;;;14.10;5.70;;;;;;;3.31;79.10;99138.09;108868;1278;22568;-80
2022/01/28 00:13:37;;;;;;;8.40;5.40;;;;;;;3.36;78.77;99150.80;108595;1278;22680;-80
2022/01/28 00:16:32;;;;;;;10.00;5.80;;;;;;;3.35;78.58;99142.98;108642;1277;22995;-82
2022/01/28 00:38:07;;;;;;;11.40;6.00;;;;;;;3.31;77.75;99136.88;105968;1276;23869;-80
2022/01/28 00:40:34;;;;;;;9.20;5.70;;;;;;;3.26;77.77;99134.09;105981;1274;23307;-79
2022/01/28 00:43:03;;;;;;;9.40;5.40;;;;;;;3.23;77.82;99135.14;105655;1280;22552;-78
2022/01/28 00:45:31;;;;;;;12.70;5.80;;;;;;;3.23;77.86;99135.49;105763;1279;25634;-80
2022/01/28 00:47:59;;;;;;;9.50;5.20;;;;;;;3.23;77.73;99124.36;105775;1279;22664;-80
2022/01/28 00:50:26;;;;;;;7.60;3.80;;;;;;;3.20;77.95;99126.45;105851;1276;22579;-84
2022/01/28 00:52:54;;;;;;;8.70;4.50;;;;;;;3.22;77.67;99123.14;105089;1285;25615;-81
2022/01/28 00:55:21;;;;;;;6.70;4.10;;;;;;;3.19;77.45;99131.31;105233;1284;22565;-85
2022/01/28 00:57:49;;;;;;;8.60;3.80;;;;;;;3.13;77.40;99114.09;105127;1285;22604;-81
2022/01/28 01:00:18;;;;;;;7.20;3.80;;;;;;;3.14;77.49;99124.68;105047;1285;24109;-82
2022/01/28 01:02:45;;;;;;;5.70;3.70;;;;;;;3.09;77.43;99117.91;105979;1281;22509;-82
2022/01/28 01:05:13;;;;;;;5.70;3.80;;;;;;;3.07;77.59;99121.73;107567;1281;22546;-81
2022/01/28 01:07:41;;;;;;;7.00;3.60;;;;;;;3.08;77.58;99122.93;108272;1281;22713;-83
2022/01/28 01:10:10;;;;;;;5.20;3.20;;;;;;;3.04;77.43;99113.38;108395;1274;23000;-84
2022/01/28 01:12:43;;;;;;;5.60;3.10;;;;;;;3.03;77.55;99115.45;108781;1273;22555;-89
2022/01/28 01:15:41;;;;;;;7.20;3.60;;;;;;;2.98;77.45;99097.20;108699;1274;22602;-88
2022/01/28 01:18:17;;;;;;;4.50;2.60;;;;;;;2.98;77.81;99090.77;108130;1274;24262;-87
2022/01/28 01:21:08;;;;;;;5.00;3.10;;;;;;;3.00;77.39;99090.77;107391;1273;22579;-78
2022/01/28 01:23:39;;;;;;;6.10;2.90;;;;;;;3.01;77.44;99084.85;106170;1276;22603;-83
2022/01/28 01:26:10;;;;;;;6.10;2.80;;;;;;;3.02;77.23;99071.29;105885;1275;23973;-77
2022/01/28 01:28:41;;;;;;;6.60;2.60;;;;;;;2.99;77.09;99077.02;106266;1273;24253;-84
2022/01/28 01:31:15;;;;;;;7.60;3.60;;;;;;;2.97;76.87;99061.88;106158;1274;24378;-80
2022/01/28 01:34:29;;;;;;;5.60;3.00;;;;;;;2.93;76.48;99054.94;106104;1273;25507;-80
2022/01/28 01:36:30;;;;;;;4.90;2.70;;;;;;;2.90;76.60;99059.96;106109;1273;22605;-81
2022/01/28 01:38:57;;;;;;;6.00;2.30;;;;;;;2.91;76.47;99053.88;106610;1274;25311;-78
2022/01/28 01:41:34;;;;;;;5.40;2.40;;;;;;;2.92;76.23;99038.40;106823;1273;25475;-81
2022/01/28 01:44:14;;;;;;;7.30;2.40;;;;;;;2.91;76.05;99034.92;106319;1273;24537;-79
2022/01/28 01:47:11;;;;;;;7.20;2.80;;;;;;;2.92;76.25;99038.58;106183;1279;22730;-81
2022/01/28 01:52:16;;;;;;;7.20;2.50;;;;;;;3.02;76.20;99024.67;105889;1278;24362;-76
2022/01/28 01:54:44;;;;;;;9.10;2.50;;;;;;;3.07;76.14;99026.93;105473;1282;22682;-79
2022/01/28 01:57:13;;;;;;;5.20;2.10;;;;;;;3.10;75.93;99021.89;105337;1282;22555;-82
2022/01/28 01:59:43;;;;;;;4.90;2.10;;;;;;;3.12;75.43;99015.62;105549;1282;24315;-79
2022/01/28 02:02:12;;;;;;;6.80;2.90;;;;;;;3.13;75.43;99013.88;105329;1282;22843;-79
2022/01/28 02:04:39;;;;;;;4.90;2.00;;;;;;;3.15;75.02;99015.96;105648;1277;24351;-80
2022/01/28 02:07:08;;;;;;;6.00;2.30;;;;;;;3.15;74.99;99005.87;105993;1276;22578;-78
2022/01/28 02:09:35;;;;;;;6.00;1.90;;;;;;;3.16;74.91;98995.95;105388;1282;24240;-78
2022/01/28 02:12:03;;;;;;;4.00;1.80;;;;;;;3.18;74.93;98999.08;105026;1287;25225;-78
2022/01/28 02:14:30;;;;;;;2.70;1.70;;;;;;;3.16;74.56;98996.46;105482;1282;25272;-80
2022/01/28 02:16:57;;;;;;;5.00;2.20;;;;;;;3.10;74.63;98978.39;104881;1290;24348;-76
2022/01/28 02:19:26;;;;;;;5.10;2.00;;;;;;;3.12;74.75;98992.81;104506;1291;22683;-79
2022/01/28 02:21:53;;;;;;;4.50;1.90;;;;;;;3.13;74.70;98994.22;104735;1290;24218;-81
2022/01/28 02:24:41;;;;;;;3.90;2.50;;;;;;;3.09;74.50;98976.66;104790;1290;25282;-82
2022/01/28 02:27:12;;;;;;;8.10;2.70;;;;;;;3.05;75.01;98983.79;104978;1284;23020;-80
2022/01/28 02:29:43;;;;;;;4.90;2.20;;;;;;;3.03;74.71;98961.20;105827;1284;24356;-80
2022/01/28 02:32:11;;;;;;;7.50;2.80;;;;;;;2.98;74.80;98969.02;106285;1284;22864;-80
2022/01/28 02:34:40;;;;;;;6.30;2.60;;;;;;;2.94;75.00;98966.58;107049;1276;22576;-81
2022/01/28 02:37:07;;;;;;;9.20;2.90;;;;;;;2.94;75.43;98975.63;108101;1276;22600;-82
2022/01/28 02:39:36;;;;;;;5.80;2.50;;;;;;;2.92;75.76;98955.45;108107;1276;24812;-81
2022/01/28 02:42:23;;;;;;;5.40;2.60;;;;;;;2.91;76.11;98968.66;108366;1282;22566;-83
2022/01/28 02:44:52;;;;;;;7.20;2.30;;;;;;;2.89;76.55;98957.20;108164;1282;22583;-81
2022/01/28 02:47:31;;;;;;;4.40;2.20;;;;;;;2.82;76.78;98957.02;108353;1282;25386;-81
2022/01/28 02:49:59;;;;;;;4.40;1.80;;;;;;;2.77;77.13;98964.68;107586;1288;22999;-77
2022/01/28 02:52:43;;;;;;;7.70;2.40;;;;;;;2.73;77.66;98947.11;107685;1288;22645;-78
2022/01/28 02:55:14;;;;;;;8.80;2.30;;;;;;;2.68;78.08;98962.95;107524;1285;25261;-79
2022/01/28 02:57:52;;;;;;;5.10;2.10;;;;;;;2.60;78.23;98960.86;107051;1285;23132;-80
2022/01/28 03:00:19;;;;;;;4.70;2.10;;;;;;;2.56;78.49;98962.77;107402;1287;22552;-82
2022/01/28 03:02:47;;;;;;;2.90;1.20;;;;;;;2.54;78.77;98961.02;107037;1287;23144;-85
2022/01/28 03:05:32;;;;;;;5.80;2.20;;;;;;;2.50;78.79;98965.38;105886;1290;23891;-82
2022/01/28 03:08:03;;;;;;;6.60;1.80;;;;;;;2.40;79.09;98937.73;105128;1290;22605;-82
2022/01/28 03:15:32;;;;;;;4.00;1.40;;;;;;;2.34;79.71;98940.15;105014;1284;22796;-82
2022/01/28 03:18:13;;;;;;;4.00;1.30;;;;;;;2.33;79.73;98934.94;105690;1284;22547;-79
2022/01/28 03:20:44;;;;;;;4.80;2.00;;;;;;;2.28;79.99;98929.90;105494;1290;22684;-79
2022/01/28 03:23:12;;;;;;;4.90;2.10;;;;;;;2.30;80.23;98935.29;106599;1285;24295;-78
2022/01/28 03:25:44;;;;;;;7.90;2.20;;;;;;;2.27;80.32;98927.81;107103;1285;22630;-79
2022/01/28 03:28:15;;;;;;;6.00;2.00;;;;;;;2.24;80.40;98922.08;106811;1284;22702;-78
2022/01/28 03:30:42;;;;;;;5.30;1.60;;;;;;;2.20;80.73;98932.67;107889;1284;22606;-79
2022/01/28 03:33:09;;;;;;;3.40;2.00;;;;;;;2.10;81.08;98932.47;107750;1284;23940;-76
2022/01/28 03:35:36;;;;;;;3.70;1.70;;;;;;;2.03;81.40;98930.38;106220;1284;22852;-78
2022/01/28 03:38:07;;;;;;;5.20;2.40;;;;;;;2.03;81.67;98924.48;105151;1285;26524;-81
2022/01/28 03:40:36;;;;;;;2.90;1.80;;;;;;;2.02;81.89;98927.61;105695;1281;23933;-77
2022/01/28 03:43:05;;;;;;;4.80;1.90;;;;;;;2.02;81.99;98938.90;105550;1273;23945;-80
2022/01/28 03:45:32;;;;;;;6.00;3.00;;;;;;;2.00;82.05;98926.73;105977;1274;23237;-78
2022/01/28 03:48:00;;;;;;;5.50;2.30;;;;;;;2.03;82.20;98933.52;106077;1274;25553;-76
2022/01/28 03:50:32;;;;;;;4.00;1.80;;;;;;;2.06;82.12;98939.08;106053;1276;25254;-79
2022/01/28 03:53:05;;;;;;;6.20;2.00;;;;;;;2.03;82.36;98933.52;105776;1279;22593;-79
2022/01/28 03:55:32;;;;;;;4.60;1.80;;;;;;;1.99;82.40;98935.94;105700;1279;22563;-81
2022/01/28 03:58:01;;;;;;;2.70;1.50;;;;;;;1.95;82.74;98931.41;105617;1279;22558;-80
2022/01/28 04:00:30;;;;;;;10.30;2.30;;;;;;;1.92;82.85;98932.80;105767;1279;25539;-80
2022/01/28 04:03:24;;;;;;;6.50;1.80;;;;;;;1.89;82.95;98932.42;105887;1280;22560;-79
2022/01/28 04:11:35;;;;;;;5.80;2.50;;;;;;;1.92;83.33;98927.95;106115;1273;22539;-80
2022/01/28 04:19:38;;;;;;;2.60;1.50;;;;;;;1.85;83.67;98928.77;106350;1274;22557;-80
2022/01/28 04:22:05;;;;;;;4.50;1.60;;;;;;;1.85;83.54;98923.22;106064;1278;24351;-78
2022/01/28 04:24:32;;;;;;;3.80;1.30;;;;;;;1.83;83.76;98922.70;105992;1279;24300;-76
2022/01/28 04:26:59;;;;;;;3.60;1.30;;;;;;;1.81;84.02;98933.98;105940;1277;23901;-80
2022/01/28 04:29:26;;;;;;;3.90;1.70;;;;;;;1.81;84.12;98931.02;105958;1280;22511;-75
2022/01/28 04:31:54;;;;;;;3.40;1.50;;;;;;;1.83;84.32;98930.01;105958;1280;24227;-84
2022/01/28 04:34:22;;;;;;;4.70;1.40;;;;;;;1.85;84.44;98936.24;105584;1281;24239;-77
2022/01/28 04:37:01;;;;;;;1.80;1.30;;;;;;;1.92;84.47;98938.36;105660;1281;26540;-75
2022/01/28 04:50:31;;;;;;;2.30;1.10;;;;;;;1.95;84.60;98941.83;105494;1284;22558;-75
2022/01/28 05:27:27;;;;;;;1.40;0.80;;;;;;;2.28;84.38;98978.20;107685;1277;22690;-82
2022/01/28 05:29:55;;;;;;;1.70;1.10;;;;;;;2.30;84.32;98980.10;107558;1283;22497;-83
2022/01/28 05:32:24;;;;;;;2.40;1.20;;;;;;;2.33;84.38;98981.50;106089;1283;22636;-84
2022/01/28 05:34:52;;;;;;;1.10;0.70;;;;;;;2.35;84.23;98992.27;105688;1288;24249;-81
2022/01/28 05:37:19;;;;;;;2.00;1.00;;;;;;;2.38;84.21;98988.98;105390;1288;23948;-82
2022/01/28 05:39:49;;;;;;;0.90;0.90;;;;;;;2.40;84.11;98994.73;105077;1287;24773;-81
2022/01/28 05:42:16;;;;;;;1.10;1.00;;;;;;;2.45;84.12;98995.42;105069;1283;25381;-81
2022/01/28 05:44:43;;;;;;;6.40;2.40;;;;;;;2.46;83.93;98995.09;105364;1284;22541;-82
2022/01/28 05:47:14;;;;;;;0.90;0.90;;;;;;;2.48;83.88;99014.37;105653;1282;25398;-83
2022/01/28 05:49:46;;;;;;;1.60;1.00;;;;;;;2.50;83.86;99010.04;105788;1280;25647;-77
2022/01/28 05:52:13;;;;;;;1.50;0.90;;;;;;;2.50;83.90;99006.04;105948;1273;25404;-75
2022/01/28 05:54:40;;;;;;;0.60;0.60;;;;;;;2.55;83.80;99014.38;106040;1274;25473;-82
2022/01/28 05:57:08;;;;;;;1.60;1.00;;;;;;;2.56;83.63;99013.17;106547;1274;24237;-83
2022/01/28 05:59:43;;;;;;;2.70;1.10;;;;;;;2.56;83.57;99017.17;106392;1274;22768;-86
2022/01/28 06:02:11;;;;;;;1.00;0.90;;;;;;;2.56;83.63;99023.95;106461;1274;22525;-85
2022/01/28 06:04:39;;;;;;;1.20;0.80;;;;;;;2.59;83.64;99028.98;106557;1274;22757;-76
2022/01/28 06:07:07;;;;;;;1.80;1.00;;;;;;;2.61;83.46;99032.64;106654;1274;24218;-84
2022/01/28 06:09:35;;;;;;;0.80;0.80;;;;;;;2.61;83.53;99037.35;106345;1274;22624;-85
2022/01/28 06:12:04;;;;;;;2.20;1.30;;;;;;;2.64;83.54;99037.34;106610;1274;25430;-86
2022/01/28 06:14:32;;;;;;;1.00;0.90;;;;;;;2.65;83.42;99042.04;106784;1275;22709;-86
2022/01/28 06:16:59;;;;;;;1.40;0.80;;;;;;;2.65;83.48;99034.73;106954;1278;22690;-84
2022/01/28 06:19:29;;;;;;;0.80;0.70;;;;;;;2.69;83.39;99039.78;106473;1279;22815;-81
2022/01/28 06:21:56;;;;;;;2.20;0.90;;;;;;;2.69;83.35;99046.21;105956;1281;23992;-85
2022/01/28 06:24:25;;;;;;;2.80;1.10;;;;;;;2.69;83.40;99045.86;106026;1278;22616;-82
2022/01/28 06:26:52;;;;;;;3.30;1.40;;;;;;;2.70;83.26;99054.55;106359;1280;25257;-85
2022/01/28 06:29:20;;;;;;;2.40;1.20;;;;;;;2.68;83.16;99056.65;106718;1278;22638;-83
2022/01/28 06:31:49;;;;;;;2.90;1.70;;;;;;;2.66;83.21;99057.34;106617;1279;23474;-82
2022/01/28 06:34:18;;;;;;;2.70;1.00;;;;;;;2.64;83.34;99058.38;108931;1278;22597;-83
2022/01/28 06:36:45;;;;;;;1.80;0.90;;;;;;;2.65;83.32;99061.69;107924;1282;23278;-82
2022/01/28 06:39:17;;;;;;;1.20;1.10;;;;;;;2.64;83.37;99068.29;107212;1282;22613;-84
2022/01/28 06:41:45;;;;;;;1.40;0.80;;;;;;;2.62;83.49;99072.98;109044;1276;22671;-83
2022/01/28 06:44:13;;;;;;;1.30;0.90;;;;;;;2.65;83.45;99080.45;108797;1279;22661;-84
2022/01/28 06:46:40;;;;;;;1.30;1.10;;;;;;;2.67;83.38;99084.11;107197;1277;24254;-84
2022/01/28 06:49:09;;;;;;;2.60;1.10;;;;;;;2.68;83.35;99085.32;106984;1278;24558;-84
2022/01/28 06:51:37;;;;;;;1.40;1.00;;;;;;;2.68;83.51;99091.23;106825;1279;23030;-83
2022/01/28 06:54:05;;;;;;;1.20;0.90;;;;;;;2.69;83.48;99093.33;105944;1278;22720;-80
2022/01/28 06:56:33;;;;;;;1.30;1.00;;;;;;;2.69;83.49;99099.23;106702;1274;22548;-82
2022/01/28 06:59:00;;;;;;;1.60;1.00;;;;;;;2.69;83.43;99103.58;106199;1274;22993;-84
2022/01/28 07:01:28;;;;;;;1.40;1.10;;;;;;;2.66;83.45;99102.70;106283;1274;25371;-84
2022/01/28 07:03:56;;;;;;;2.30;1.20;;;;;;;2.67;83.31;99107.75;106325;1275;23492;-83
2022/01/28 07:06:24;;;;;;;2.90;1.40;;;;;;;2.66;83.32;99106.71;106083;1279;22561;-85
2022/01/28 07:08:52;;;;;;;1.90;1.10;;;;;;;2.64;83.36;99120.26;106205;1279;25313;-84
2022/01/28 07:11:21;;;;;;;1.40;1.10;;;;;;;2.62;83.37;99121.48;106686;1279;22563;-84
2022/01/28 07:13:49;;;;;;;2.50;1.20;;;;;;;2.62;83.37;99132.93;105696;1278;22564;-83
2022/01/28 07:16:16;;;;;;;2.40;1.40;;;;;;;2.61;83.51;99133.29;105919;1278;23439;-84
2022/01/28 07:18:43;;;;;;;2.30;1.20;;;;;;;2.65;83.39;99137.13;106081;1279;23907;-83
2022/01/28 07:21:11;;;;;;;2.00;1.30;;;;;;;2.65;83.31;99139.38;105863;1280;25578;-84
2022/01/28 07:23:39;;;;;;;2.10;1.00;;;;;;;2.64;83.35;99134.17;106081;1280;24242;-83
2022/01/28 07:26:07;;;;;;;2.80;1.50;;;;;;;2.64;83.14;99146.16;106466;1274;24288;-82
2022/01/28 07:28:36;;;;;;;2.50;1.50;;;;;;;2.63;83.17;99146.51;106414;1274;22541;-84
2022/01/28 07:31:04;;;;;;;3.30;1.40;;;;;;;2.63;83.19;99163.19;106187;1274;24221;-84
2022/01/28 07:33:32;;;;;;;1.70;1.30;;;;;;;2.65;83.00;99170.67;106462;1274;22592;-83
2022/01/28 07:36:00;;;;;;;1.80;1.00;;;;;;;2.64;82.88;99175.20;106259;1276;23071;-84
2022/01/28 07:38:28;;;;;;;1.60;1.20;;;;;;;2.64;82.87;99172.77;106406;1274;22524;-84
2022/01/28 07:40:57;;;;;;;1.80;1.50;;;;;;;2.66;82.99;99181.81;106305;1274;24259;-85
2022/01/28 07:43:26;;;;;;;1.00;0.90;;;;;;;2.66;82.77;99190.51;105745;1282;23979;-83
2022/01/28 07:45:54;;;;;;;1.60;1.10;;;;;;;2.63;82.64;99192.05;105960;1280;22660;-84
2022/01/28 07:48:22;;;;;;;2.20;1.60;;;;;;;2.65;82.62;99197.95;107402;1279;22626;-82
2022/01/28 07:50:50;;;;;;;1.90;1.10;;;;;;;2.65;82.46;99204.05;107254;1279;22563;-84
2022/01/28 07:53:17;;;;;;;1.90;1.10;;;;;;;2.63;82.46;99218.13;106199;1280;23260;-84
2022/01/28 07:55:44;;;;;;;0.90;0.80;;;;;;;2.64;82.42;99221.08;107740;1279;25387;-82
2022/01/28 07:58:12;;;;;;;2.10;1.10;;;;;;;2.63;82.45;99230.98;108651;1279;22572;-89
2022/01/28 08:00:39;;;;;;;1.50;1.10;;;;;;;2.61;82.53;99232.54;108479;1274;22570;-82
2022/01/28 08:03:06;;;;;;;2.50;1.10;;;;;;;2.60;82.38;99250.79;108506;1273;22797;-82
2022/01/28 08:05:34;;;;;;;2.30;1.20;;;;;;;2.58;82.22;99248.00;108713;1274;22704;-82
2022/01/28 08:08:08;;;;;;;1.50;1.00;;;;;;;2.57;82.31;99260.52;107939;1274;22554;-83
2022/01/28 08:10:35;;;;;;;1.40;1.00;;;;;;;2.57;82.15;99251.48;107167;1274;22474;-83
2022/01/28 08:13:05;;;;;;;0.80;0.70;;;;;;;2.57;82.14;99266.77;106683;1274;25375;-84
2022/01/28 08:15:34;;;;;;;1.30;0.90;;;;;;;2.55;82.12;99278.22;106127;1282;24245;-83
2022/01/28 08:18:03;;;;;;;0.80;0.70;;;;;;;2.56;82.12;99278.41;106095;1281;25324;-80
2022/01/28 08:20:31;;;;;;;0.90;0.80;;;;;;;2.53;82.06;99284.46;106257;1280;22873;-84
2022/01/28 08:23:27;;;;;;;1.80;0.90;;;;;;;2.54;81.75;99291.95;103146;1310;546191;-83
2022/01/28 08:25:55;;;;;;;2.60;0.80;;;;;;;2.49;81.86;99298.35;106079;1289;22575;-84
2022/01/28 08:28:26;;;;;;;0.80;0.80;;;;;;;2.50;81.81;99303.22;104599;1296;22604;-83
2022/01/28 08:30:55;;;;;;;1.60;0.90;;;;;;;2.46;81.76;99308.94;105796;1295;22604;-84
2022/01/28 08:33:23;;;;;;;1.00;1.00;;;;;;;2.44;81.81;99316.40;105886;1295;22813;-83
2022/01/28 08:35:53;;;;;;;1.00;1.00;;;;;;;2.46;81.81;99324.40;100826;1296;6587348;-83
2022/01/28 08:38:27;;;;;;;1.40;1.20;;;;;;;2.49;81.75;99326.85;104928;1292;24266;-84
2022/01/28 08:40:57;;;;;;;2.00;1.00;;;;;;;2.57;81.52;99330.04;104794;1294;23994;-85
2022/01/28 08:43:26;;;;;;;1.00;0.80;;;;;;;2.53;81.13;99342.00;105346;1284;22603;-83
2022/01/28 08:45:54;;;;;;;2.50;0.90;;;;;;;2.45;81.22;99346.29;106672;1287;23306;-83
2022/01/28 08:48:24;;;;;;;1.00;0.80;;;;;;;2.44;81.40;99350.27;107034;1282;24396;-84
2022/01/28 08:50:52;;;;;;;1.40;1.20;;;;;;;2.43;81.16;99353.05;107459;1281;23281;-82
2022/01/28 08:53:20;;;;;;;1.10;1.00;;;;;;;2.40;81.20;99373.36;107784;1281;22582;-85
2022/01/28 08:55:49;;;;;;;1.40;0.90;;;;;;;2.36;81.46;99370.04;107299;1281;24313;-84
2022/01/28 08:58:22;;;;;;;1.50;0.90;;;;;;;2.35;81.29;99378.02;108033;1281;22500;-83
2022/01/28 09:00:51;;;;;;;0.80;0.70;;;;;;;2.33;81.25;99390.67;108173;1281;24229;-83
2022/01/28 09:03:22;;;;;;;1.10;1.00;;;;;;;2.29;81.33;99399.51;108300;1278;22586;-86
2022/01/28 09:05:50;;;;;;;0.80;0.80;;;;;;;2.31;81.45;99407.52;109037;1274;22583;-83
2022/01/28 09:08:19;;;;;;;2.10;0.90;;;;;;;2.33;81.37;99409.27;108506;1281;22847;-88
2022/01/28 09:10:59;;;;;;;2.00;1.00;;;;;;;2.32;81.32;99422.30;109052;1280;22679;-83
2022/01/28 09:13:37;;;;;;;1.60;1.00;;;;;;;2.29;80.95;99419.14;109203;1280;22614;-83
2022/01/28 09:16:05;;;;;;;0.80;0.80;;;;;;;2.31;81.21;99431.33;108860;1280;23064;-83
2022/01/28 09:18:33;;;;;;;1.80;0.90;;;;;;;2.31;81.15;99436.54;108861;1276;23500;-84
2022/01/28 09:21:01;;;;;;;2.00;1.10;;;;;;;2.32;81.33;99446.62;109506;1274;22583;-83
2022/01/28 09:23:30;;;;;;;0.90;0.90;;;;;;;2.32;81.25;99458.45;109530;1277;22661;-85
2022/01/28 09:25:57;;;;;;;1.20;1.00;;;;;;;2.36;81.17;99455.36;108915;1279;22681;-82
2022/01/28 09:28:25;;;;;;;1.70;1.00;;;;;;;2.34;80.55;99462.98;108543;1284;22622;-89
2022/01/28 09:30:59;;;;;;;0.90;0.90;;;;;;;2.32;80.70;99477.38;108787;1284;22646;-83
2022/01/28 09:33:28;;;;;;;1.60;1.20;;;;;;;2.32;80.82;99483.45;108845;1277;22657;-84
2022/01/28 09:35:56;;;;;;;1.00;0.90;;;;;;;2.29;80.82;99486.73;108387;1280;22774;-83
2022/01/28 09:38:25;;;;;;;1.10;1.00;;;;;;;2.26;80.92;99493.66;108002;1277;22631;-84
2022/01/28 09:40:56;;;;;;;0.90;0.80;;;;;;;2.21;81.11;99503.52;107805;1277;23953;-83
2022/01/28 09:43:26;;;;;;;1.10;0.80;;;;;;;2.21;80.85;99508.02;108018;1277;24074;-84
2022/01/28 09:45:55;;;;;;;2.50;1.60;;;;;;;2.23;80.82;99517.42;109062;1270;23203;-83
2022/01/28 09:48:23;;;;;;;1.80;1.20;;;;;;;2.31;80.83;99524.98;108444;1271;22577;-84
2022/01/28 09:50:51;;;;;;;1.80;1.20;;;;;;;2.37;80.61;99520.52;108604;1271;23227;-83
2022/01/28 09:53:21;;;;;;;1.90;1.20;;;;;;;2.40;80.46;99533.77;109666;1271;22690;-84
2022/01/28 09:55:55;;;;;;;;;;;;;;;2.38;80.43;99539.30;108149;1277;23121;-82
2022/01/28 09:58:25;;;;;;;1.70;1.20;;;;;;;2.41;80.34;99545.94;107323;1277;22649;-85
2022/01/28 10:00:52;;;;;;;1.90;1.20;;;;;;;2.39;80.25;99546.79;106836;1276;22581;-84
2022/01/28 10:03:20;;;;;;;2.40;1.50;;;;;;;2.41;80.24;99549.24;106504;1276;22613;-84
2022/01/28 10:05:51;;;;;;;4.90;2.00;;;;;;;2.44;79.96;99551.88;105983;1280;24269;-84
2022/01/28 10:08:24;;;;;;;3.10;1.60;;;;;;;2.46;79.61;99560.24;105677;1284;22577;-83
2022/01/28 10:11:14;;;;;;;4.20;2.00;;;;;;;2.42;79.15;99571.16;105919;1281;25935;-84
2022/01/28 10:13:48;;;;;;;3.60;2.20;;;;;;;2.39;79.14;99566.94;105888;1279;22740;-83
2022/01/28 10:16:27;;;;;;;5.00;2.20;;;;;;;2.40;78.99;99578.08;105848;1280;22609;-82
2022/01/28 10:19:06;;;;;;;2.70;1.40;;;;;;;2.41;78.73;99583.13;105681;1281;22741;-83
2022/01/28 10:21:54;;;;;;;1.90;1.40;;;;;;;2.37;78.14;99583.08;106049;1280;24231;-84
2022/01/28 10:24:28;;;;;;;3.40;1.50;;;;;;;2.34;78.40;99597.82;105773;1281;23155;-83
2022/01/28 10:27:20;;;;;;;2.30;1.90;;;;;;;2.35;78.13;99597.31;105879;1277;22550;-84
2022/01/28 10:29:47;;;;;;;2.90;1.70;;;;;;;2.39;78.18;99601.52;106120;1276;24526;-84
2022/01/28 10:32:17;;;;;;;2.40;1.60;;;;;;;2.40;77.62;99613.52;105994;1278;25347;-82
2022/01/28 10:34:46;;;;;;;5.00;2.00;;;;;;;2.41;77.79;99621.55;106092;1277;25657;-83
2022/01/28 10:37:20;;;;;;;3.20;1.80;;;;;;;2.46;77.70;99623.50;106174;1277;24262;-82
2022/01/28 10:39:57;;;;;;;5.00;1.90;;;;;;;2.50;77.21;99632.92;106327;1281;22911;-84
2022/01/28 10:42:41;;;;;;;2.30;1.40;;;;;;;2.52;77.37;99630.36;106948;1281;22562;-84
2022/01/28 10:45:24;;;;;;;3.20;1.40;;;;;;;2.57;76.80;99633.19;106674;1281;22566;-84
2022/01/28 10:47:57;;;;;;;3.30;1.90;;;;;;;2.60;76.37;99631.84;106736;1281;22562;-84
2022/01/28 10:50:36;;;;;;;4.20;1.70;;;;;;;2.62;75.80;99636.38;107827;1281;22594;-84
2022/01/28 10:53:28;;;;;;;4.80;2.30;;;;;;;2.68;75.81;99651.74;107554;1281;22583;-83
2022/01/28 10:56:14;;;;;;;2.30;1.60;;;;;;;2.70;75.54;99662.71;107388;1281;22558;-82
2022/01/28 10:58:41;;;;;;;2.30;1.50;;;;;;;2.70;75.33;99664.62;107042;1277;22653;-83
2022/01/28 11:01:13;;;;;;;2.90;1.70;;;;;;;2.68;75.26;99682.69;107095;1271;22607;-83
2022/01/28 11:03:40;;;;;;;4.70;2.20;;;;;;;2.68;75.24;99678.34;107083;1271;25257;-84
2022/01/28 11:06:09;;;;;;;5.20;1.50;;;;;;;2.68;75.37;99679.39;106785;1271;22681;-85
2022/01/28 11:08:40;;;;;;;3.90;1.80;;;;;;;2.67;74.95;99683.02;106872;1271;25268;-84
2022/01/28 11:11:07;;;;;;;4.50;1.80;;;;;;;2.68;74.89;99689.11;107103;1271;22705;-83
2022/01/28 11:13:36;;;;;;;4.10;2.60;;;;;;;2.68;74.96;99690.33;107124;1277;23267;-82
2022/01/28 11:16:05;;;;;;;4.10;2.10;;;;;;;2.68;74.78;99699.89;107819;1276;22666;-82
2022/01/28 11:18:33;;;;;;;4.30;1.90;;;;;;;2.70;75.16;99704.96;107472;1283;22555;-83
2022/01/28 11:21:10;;;;;;;2.30;1.60;;;;;;;2.70;74.95;99707.76;107368;1281;26599;-83
2022/01/28 11:24:32;;;;;;;4.80;1.90;;;;;;;2.71;74.93;99712.80;106820;1279;23200;-83
2022/01/28 11:27:06;;;;;;;4.00;2.30;;;;;;;2.74;74.52;99726.39;106167;1289;22659;-82
2022/01/28 11:29:34;;;;;;;6.00;2.50;;;;;;;2.69;74.15;99724.95;106830;1287;25411;-82
2022/01/28 11:32:15;;;;;;;2.60;1.50;;;;;;;2.68;74.38;99728.41;107017;1280;25323;-83
2022/01/28 11:35:02;;;;;;;1.60;0.90;;;;;;;2.64;73.43;99736.88;107353;1279;22606;-82
2022/01/28 11:37:32;;;;;;;2.60;1.50;;;;;;;2.59;73.55;99745.86;108713;1277;22833;-88
2022/01/28 11:40:12;;;;;;;2.60;1.30;;;;;;;2.62;73.69;99749.89;107979;1282;25454;-82
2022/01/28 11:42:39;;;;;;;1.60;1.30;;;;;;;2.66;73.55;99747.00;107262;1282;22742;-81
2022/01/28 11:45:12;;;;;;;1.40;1.10;;;;;;;2.66;73.10;99755.17;106632;1285;22607;-83
2022/01/28 11:48:02;;;;;;;2.70;1.30;;;;;;;2.68;73.24;99757.27;107027;1284;22551;-82
2022/01/28 11:50:51;;;;;;;2.50;1.60;;;;;;;2.69;73.38;99767.55;107353;1284;22650;-82
2022/01/28 11:53:24;;;;;;;2.50;1.30;;;;;;;2.70;73.42;99768.77;106406;1287;22516;-82
2022/01/28 11:56:03;;;;;;;2.30;1.60;;;;;;;2.71;73.88;99778.01;106870;1287;23412;-83
2022/01/28 11:59:01;;;;;;;2.00;1.40;;;;;;;2.74;74.17;99786.22;105432;1290;25299;-85
2022/01/28 12:02:00;;;;;;;2.20;1.70;;;;;;;2.78;74.40;99792.70;106112;1290;26624;-82
2022/01/28 12:04:31;;;;;;;2.40;1.40;;;;;;;2.79;74.32;99801.75;106311;1290;24304;-83
2022/01/28 12:07:03;;;;;;;3.30;1.70;;;;;;;2.68;74.45;99806.66;106570;1290;22881;-83
2022/01/28 12:09:38;;;;;;;3.60;2.00;;;;;;;2.63;74.85;99815.11;106974;1290;23426;-82
2022/01/28 12:12:12;;;;;;;4.10;2.00;;;;;;;2.65;75.03;99825.39;107532;1285;24295;-82
2022/01/28 12:15:13;;;;;;;4.30;2.10;;;;;;;2.64;75.08;99821.38;107775;1285;22944;-84
2022/01/28 12:17:47;;;;;;;5.20;1.90;;;;;;;2.68;75.22;99828.91;107593;1287;22621;-82
2022/01/28 12:20:38;;;;;;;5.90;2.90;;;;;;;2.71;74.72;99830.88;107652;1287;25350;-82
2022/01/28 12:23:26;;;;;;;3.80;1.90;;;;;;;2.69;74.64;99825.79;107680;1284;24255;-82
2022/01/28 12:25:58;;;;;;;2.30;1.40;;;;;;;2.67;74.31;99840.03;107705;1285;22556;-83
2022/01/28 12:28:53;;;;;;;3.00;1.70;;;;;;;2.69;74.10;99841.43;107217;1285;22522;-80
2022/01/28 12:31:40;;;;;;;2.90;1.50;;;;;;;2.69;73.67;99841.63;106542;1291;22662;-82
2022/01/28 12:34:18;;;;;;;3.00;1.90;;;;;;;2.67;73.60;99855.85;106376;1290;22583;-82
2022/01/28 12:36:48;;;;;;;1.60;1.50;;;;;;;2.71;73.41;99853.81;105720;1293;22576;-82
2022/01/28 12:39:32;;;;;;;3.20;1.70;;;;;;;2.69;73.15;99853.27;105353;1294;24682;-83
2022/01/28 12:42:10;;;;;;;4.20;2.00;;;;;;;2.72;72.81;99857.48;105128;1297;22516;-82
2022/01/28 12:44:39;;;;;;;3.20;1.80;;;;;;;2.77;72.43;99858.75;105552;1293;24354;-85
2022/01/28 12:47:12;;;;;;;1.90;1.30;;;;;;;2.77;71.98;99857.20;105874;1294;26078;-84
2022/01/28 12:49:40;;;;;;;4.30;1.90;;;;;;;2.77;71.73;99863.46;105835;1294;22611;-83
2022/01/28 12:52:09;;;;;;;2.50;1.40;;;;;;;2.76;71.97;99868.66;105648;1294;22593;-83
2022/01/28 12:54:46;;;;;;;2.90;1.50;;;;;;;2.77;72.09;99879.98;106649;1282;23247;-89
2022/01/28 12:57:18;;;;;;;1.70;0.90;;;;;;;2.79;71.19;99886.45;108377;1282;22703;-84
2022/01/28 12:59:49;;;;;;;2.30;1.40;;;;;;;2.74;70.54;99898.02;107452;1279;23036;-84
2022/01/28 13:02:19;;;;;;;3.50;1.40;;;;;;;2.69;70.68;99898.13;107004;1281;22580;-83
2022/01/28 13:09:55;;;;;;;;;;;;;;;2.73;70.49;99912.78;107122;1280;25576;-84
2022/01/28 13:12:26;;;;;;;1.50;1.10;;;;;;;2.75;69.87;99911.42;106098;1279;25444;-84
2022/01/28 13:14:53;;;;;;;1.60;1.10;;;;;;;2.75;70.14;99916.13;106511;1280;22555;-84
2022/01/28 13:17:24;;;;;;;2.10;1.10;;;;;;;2.76;69.87;99921.88;105864;1282;25379;-84
2022/01/28 13:19:58;;;;;;;1.70;0.90;;;;;;;2.75;69.62;99926.20;106570;1279;22612;-84
2022/01/28 13:22:31;;;;;;;2.50;0.80;;;;;;;2.74;70.02;99939.41;107614;1279;23213;-84
2022/01/28 13:25:00;;;;;;;2.00;1.00;;;;;;;2.72;69.58;99941.13;107899;1274;25258;-84